Lucky Thirteen — WDD8654 — position and weather

sailwx.info

Track history (hours):
 
Tides and Currents Weather Stations Pressure Air Temp Water Temp Dewpoint Dewpoint Depression Visibility Wind Speed Wind Dir Waves Ship Positions

Lucky Thirteen

Owner: Kristine L Inc., Barnegat Light, NJ. More information available from US FCC via Universal Licensing System and Coast Guard Vessel Documentation Center.

Last reported at 2015-Jul-28 19:06 UTC. Time now 2015-Jul-28 21:45 UTC.
Position N 39°46' W 074°07'.

Length 23 m.

Type: Fishing. MMSI: 367300990.

Date/timePositionNaut miles runAvg speedWind from/ knotsBaromVisibWave heightAir tempDewpointWater temp
2015-Jul-28 19:06N 39°46' W 074°07'4 7.8
2015-Jul-28 18:33N 39°43' W 074°02'6 0.3
2015-Jul-27 23:28N 39°38' W 073°59'7 8.0
2015-Jul-27 22:32N 39°45' W 074°03'3 2.4
2015-Jul-27 21:17N 39°45' W 074°07'0 0.0
2015-Jul-27 19:11N 39°45' W 074°07'0 0.0
2015-Jul-27 17:23N 39°45' W 074°07'0 0.0
2015-Jul-27 16:11N 39°45' W 074°07'0 0.0
2015-Jul-27 15:29N 39°45' W 074°07'0 0.0
2015-Jul-27 13:29N 39°45' W 074°07'0 0.0
2015-Jul-27 12:23N 39°45' W 074°07'0 0.0
2015-Jul-27 11:29N 39°45' W 074°07'0 0.0
2015-Jul-27 07:33N 39°45' W 074°07'0 0.0
2015-Jul-27 06:33N 39°45' W 074°07'0 0.0
2015-Jul-27 05:33N 39°45' W 074°07'0 0.0
2015-Jul-27 04:30N 39°45' W 074°07'0 0.0
2015-Jul-27 03:15N 39°45' W 074°07'0 0.0
2015-Jul-27 02:33N 39°45' W 074°07'0 0.0
2015-Jul-27 01:30N 39°45' W 074°07'0 0.0
2015-Jul-27 00:30N 39°45' W 074°07'0 0.0
2015-Jul-26 23:12N 39°45' W 074°07'0 0.0
2015-Jul-26 21:06N 39°45' W 074°07'0 0.0
2015-Jul-26 20:30N 39°45' W 074°07'0 0.0
2015-Jul-26 17:24N 39°45' W 074°07'0 0.0
2015-Jul-26 15:24N 39°45' W 074°07'0 0.0
2015-Jul-26 12:30N 39°45' W 074°07'0 0.0
2015-Jul-26 09:27N 39°45' W 074°07'0 0.0
2015-Jul-26 08:33N 39°45' W 074°07'0 0.0
2015-Jul-26 06:18N 39°45' W 074°07'0 0.0
2015-Jul-26 05:27N 39°45' W 074°07'0 0.0
2015-Jul-26 04:24N 39°45' W 074°07'0 0.0
2015-Jul-26 00:33N 39°45' W 074°07'0 0.0
2015-Jul-25 23:15N 39°45' W 074°07'0 0.0
2015-Jul-25 21:33N 39°45' W 074°07'1 0.8
2015-Jul-25 20:33N 39°46' W 074°07'9 8.3
2015-Jul-25 19:29N 39°39' W 073°60'44 2.9
2015-Jul-25 04:33N 38°60' W 073°34'8 8.0
2015-Jul-25 03:33N 39°07' W 073°39'9 8.3
2015-Jul-25 02:28N 39°15' W 073°44'25 8.3
2015-Jul-24 23:29N 39°37' W 073°59'9 8.6
2015-Jul-24 22:25N 39°45' W 074°05'2 1.3
2015-Jul-24 21:06N 39°45' W 074°07'0 0.0
2015-Jul-24 20:24N 39°45' W 074°07'0 0.0
2015-Jul-24 19:30N 39°45' W 074°07'0 0.0
2015-Jul-24 16:33N 39°45' W 074°07'0 0.0
2015-Jul-24 15:33N 39°45' W 074°07'0 0.0
2015-Jul-24 14:33N 39°45' W 074°07'0 0.0
2015-Jul-24 13:33N 39°45' W 074°07'0 0.0
2015-Jul-24 12:27N 39°45' W 074°07'0 0.0
2015-Jul-24 10:03N 39°45' W 074°07'0 0.0
2015-Jul-24 09:15N 39°45' W 074°07'0 0.0
2015-Jul-24 08:33N 39°45' W 074°07'0 0.0
2015-Jul-24 07:27N 39°45' W 074°07'0 0.0
2015-Jul-24 06:27N 39°45' W 074°07'0 0.1
2015-Jul-24 05:33N 39°45' W 074°07'6 4.4
2015-Jul-24 04:13N 39°42' W 074°00'7 8.4
2015-Jul-24 03:24N 39°37' W 073°54'4 0.2
2015-Jul-23 10:29N 39°39' W 073°58'8 8.0
2015-Jul-23 09:29N 39°46' W 074°05'2 1.5
2015-Jul-23 08:16N 39°45' W 074°07'0 0.0
2015-Jul-23 07:16N 39°45' W 074°07'0 0.0
2015-Jul-23 06:28N 39°45' W 074°07'0 0.0
2015-Jul-23 03:04N 39°45' W 074°07'0 0.0
2015-Jul-22 19:22N 39°45' W 074°07'0 0.0
2015-Jul-22 18:04N 39°45' W 074°07'0 0.0
2015-Jul-22 15:28N 39°45' W 074°07'0 0.0
2015-Jul-22 14:28N 39°45' W 074°07'0 0.0
2015-Jul-22 13:16N 39°45' W 074°07'0 0.0
2015-Jul-22 11:28N 39°45' W 074°07'0 0.0
2015-Jul-22 10:22N 39°45' W 074°07'0 0.0
2015-Jul-22 09:04N 39°45' W 074°07'0 0.0
2015-Jul-22 08:22N 39°45' W 074°07'0 0.0
2015-Jul-22 07:13N 39°45' W 074°07'0 0.0
2015-Jul-22 06:13N 39°45' W 074°07'0 0.0
2015-Jul-22 05:13N 39°45' W 074°07'0 0.0
2015-Jul-22 03:07N 39°45' W 074°07'0 0.0
2015-Jul-21 22:31N 39°45' W 074°07'0 0.0
2015-Jul-21 20:31N 39°45' W 074°07'3 3.5
2015-Jul-21 19:33N 39°44' W 074°03'9 8.6
2015-Jul-21 18:30N 39°37' W 073°56'2 0.1
2015-Jul-21 01:33N 39°39' W 073°57'8 8.2
2015-Jul-21 00:31N 39°46' W 074°04'2 2.5
2015-Jul-20 23:33N 39°45' W 074°07'0 0.0
2015-Jul-20 21:09N 39°45' W 074°07'0 0.0
2015-Jul-20 20:27N 39°45' W 074°07'0 0.0
2015-Jul-20 19:33N 39°45' W 074°07'0 0.0
2015-Jul-20 18:27N 39°45' W 074°07'0 0.0
2015-Jul-20 16:27N 39°45' W 074°07'0 0.0
2015-Jul-20 15:24N 39°45' W 074°07'0 0.0
2015-Jul-20 14:09N 39°45' W 074°07'0 0.0
2015-Jul-20 13:33N 39°45' W 074°07'0 0.0
2015-Jul-20 12:30N 39°45' W 074°07'0 0.0
2015-Jul-20 11:33N 39°45' W 074°07'0 0.0
2015-Jul-20 10:21N 39°45' W 074°07'0 0.0
2015-Jul-20 08:33N 39°45' W 074°07'0 0.0
2015-Jul-20 07:33N 39°45' W 074°07'0 0.0
2015-Jul-20 06:27N 39°45' W 074°07'0 0.0
2015-Jul-20 05:21N 39°45' W 074°07'0 0.0
2015-Jul-20 03:03N 39°45' W 074°07'0 0.0
2015-Jul-20 02:27N 39°45' W 074°07'0 0.0
2015-Jul-20 01:21N 39°45' W 074°07'0 0.0
2015-Jul-19 23:27N 39°45' W 074°07'0 0.0
2015-Jul-19 22:03N 39°45' W 074°07'0 0.0
2015-Jul-19 21:33N 39°45' W 074°07'0 0.0
2015-Jul-19 20:33N 39°45' W 074°07'0 0.0
2015-Jul-19 18:33N 39°45' W 074°07'0 0.0
2015-Jul-19 17:21N 39°45' W 074°07'0 0.0
2015-Jul-19 16:33N 39°45' W 074°07'0 0.0
2015-Jul-19 15:03N 39°45' W 074°07'0 0.0
2015-Jul-19 14:33N 39°45' W 074°07'0 0.0
2015-Jul-19 13:15N 39°45' W 074°07'0 0.0
2015-Jul-19 12:33N 39°45' W 074°07'0 0.0
2015-Jul-19 11:33N 39°45' W 074°07'0 0.0
2015-Jul-19 10:21N 39°45' W 074°07'0 0.0
2015-Jul-19 09:18N 39°45' W 074°07'0 0.0
2015-Jul-19 05:09N 39°45' W 074°07'0 0.0
2015-Jul-19 04:33N 39°45' W 074°07'0 0.0
2015-Jul-19 00:18N 39°45' W 074°07'0 0.0
2015-Jul-18 23:24N 39°45' W 074°07'0 0.0
2015-Jul-18 22:18N 39°45' W 074°07'0 0.0
2015-Jul-18 21:18N 39°45' W 074°07'0 0.0
2015-Jul-18 19:24N 39°45' W 074°07'  
Track history (hours):
 
Tides and Currents Weather Stations Pressure Air Temp Water Temp Dewpoint Dewpoint Depression Visibility Wind Speed Wind Dir Waves Ship Positions

Lucky Thirteen

Owner: Kristine L Inc., Barnegat Light, NJ. More information available from US FCC via Universal Licensing System and Coast Guard Vessel Documentation Center.

Last reported at 2015-Jul-28 19:06 UTC. Time now 2015-Jul-28 21:45 UTC.
Position N 39°46' W 074°07'.

Length 23 m.

Type: Fishing. MMSI: 367300990.

Date/timePositionNaut miles runAvg speedWind from/ knotsBaromVisibWave heightAir tempDewpointWater temp
2015-Jul-28 19:06N 39°46' W 074°07'4 7.8
2015-Jul-28 18:33N 39°43' W 074°02'6 0.3
2015-Jul-27 23:28N 39°38' W 073°59'7 8.0
2015-Jul-27 22:32N 39°45' W 074°03'3 2.4
2015-Jul-27 21:17N 39°45' W 074°07'0 0.0
2015-Jul-27 19:11N 39°45' W 074°07'0 0.0
2015-Jul-27 17:23N 39°45' W 074°07'0 0.0
2015-Jul-27 16:11N 39°45' W 074°07'0 0.0
2015-Jul-27 15:29N 39°45' W 074°07'0 0.0
2015-Jul-27 13:29N 39°45' W 074°07'0 0.0
2015-Jul-27 12:23N 39°45' W 074°07'0 0.0
2015-Jul-27 11:29N 39°45' W 074°07'0 0.0
2015-Jul-27 07:33N 39°45' W 074°07'0 0.0
2015-Jul-27 06:33N 39°45' W 074°07'0 0.0
2015-Jul-27 05:33N 39°45' W 074°07'0 0.0
2015-Jul-27 04:30N 39°45' W 074°07'0 0.0
2015-Jul-27 03:15N 39°45' W 074°07'0 0.0
2015-Jul-27 02:33N 39°45' W 074°07'0 0.0
2015-Jul-27 01:30N 39°45' W 074°07'0 0.0
2015-Jul-27 00:30N 39°45' W 074°07'0 0.0
2015-Jul-26 23:12N 39°45' W 074°07'0 0.0
2015-Jul-26 21:06N 39°45' W 074°07'0 0.0
2015-Jul-26 20:30N 39°45' W 074°07'0 0.0
2015-Jul-26 17:24N 39°45' W 074°07'0 0.0
2015-Jul-26 15:24N 39°45' W 074°07'0 0.0
2015-Jul-26 12:30N 39°45' W 074°07'0 0.0
2015-Jul-26 09:27N 39°45' W 074°07'0 0.0
2015-Jul-26 08:33N 39°45' W 074°07'0 0.0
2015-Jul-26 06:18N 39°45' W 074°07'0 0.0
2015-Jul-26 05:27N 39°45' W 074°07'0 0.0
2015-Jul-26 04:24N 39°45' W 074°07'0 0.0
2015-Jul-26 00:33N 39°45' W 074°07'0 0.0
2015-Jul-25 23:15N 39°45' W 074°07'0 0.0
2015-Jul-25 21:33N 39°45' W 074°07'1 0.8
2015-Jul-25 20:33N 39°46' W 074°07'9 8.3
2015-Jul-25 19:29N 39°39' W 073°60'44 2.9
2015-Jul-25 04:33N 38°60' W 073°34'8 8.0
2015-Jul-25 03:33N 39°07' W 073°39'9 8.3
2015-Jul-25 02:28N 39°15' W 073°44'25 8.3
2015-Jul-24 23:29N 39°37' W 073°59'9 8.6
2015-Jul-24 22:25N 39°45' W 074°05'2 1.3
2015-Jul-24 21:06N 39°45' W 074°07'0 0.0
2015-Jul-24 20:24N 39°45' W 074°07'0 0.0
2015-Jul-24 19:30N 39°45' W 074°07'0 0.0
2015-Jul-24 16:33N 39°45' W 074°07'0 0.0
2015-Jul-24 15:33N 39°45' W 074°07'0 0.0
2015-Jul-24 14:33N 39°45' W 074°07'0 0.0
2015-Jul-24 13:33N 39°45' W 074°07'0 0.0
2015-Jul-24 12:27N 39°45' W 074°07'0 0.0
2015-Jul-24 10:03N 39°45' W 074°07'0 0.0
2015-Jul-24 09:15N 39°45' W 074°07'0 0.0
2015-Jul-24 08:33N 39°45' W 074°07'0 0.0
2015-Jul-24 07:27N 39°45' W 074°07'0 0.0
2015-Jul-24 06:27N 39°45' W 074°07'0 0.1
2015-Jul-24 05:33N 39°45' W 074°07'6 4.4
2015-Jul-24 04:13N 39°42' W 074°00'7 8.4
2015-Jul-24 03:24N 39°37' W 073°54'4 0.2
2015-Jul-23 10:29N 39°39' W 073°58'8 8.0
2015-Jul-23 09:29N 39°46' W 074°05'2 1.5
2015-Jul-23 08:16N 39°45' W 074°07'0 0.0
2015-Jul-23 07:16N 39°45' W 074°07'0 0.0
2015-Jul-23 06:28N 39°45' W 074°07'0 0.0
2015-Jul-23 03:04N 39°45' W 074°07'0 0.0
2015-Jul-22 19:22N 39°45' W 074°07'0 0.0
2015-Jul-22 18:04N 39°45' W 074°07'0 0.0
2015-Jul-22 15:28N 39°45' W 074°07'0 0.0
2015-Jul-22 14:28N 39°45' W 074°07'0 0.0
2015-Jul-22 13:16N 39°45' W 074°07'0 0.0
2015-Jul-22 11:28N 39°45' W 074°07'0 0.0
2015-Jul-22 10:22N 39°45' W 074°07'0 0.0
2015-Jul-22 09:04N 39°45' W 074°07'0 0.0
2015-Jul-22 08:22N 39°45' W 074°07'0 0.0
2015-Jul-22 07:13N 39°45' W 074°07'0 0.0
2015-Jul-22 06:13N 39°45' W 074°07'0 0.0
2015-Jul-22 05:13N 39°45' W 074°07'0 0.0
2015-Jul-22 03:07N 39°45' W 074°07'0 0.0
2015-Jul-21 22:31N 39°45' W 074°07'0 0.0
2015-Jul-21 20:31N 39°45' W 074°07'3 3.5
2015-Jul-21 19:33N 39°44' W 074°03'9 8.6
2015-Jul-21 18:30N 39°37' W 073°56'2 0.1
2015-Jul-21 01:33N 39°39' W 073°57'8 8.2
2015-Jul-21 00:31N 39°46' W 074°04'2 2.5
2015-Jul-20 23:33N 39°45' W 074°07'0 0.0
2015-Jul-20 21:09N 39°45' W 074°07'0 0.0
2015-Jul-20 20:27N 39°45' W 074°07'0 0.0
2015-Jul-20 19:33N 39°45' W 074°07'0 0.0
2015-Jul-20 18:27N 39°45' W 074°07'0 0.0
2015-Jul-20 16:27N 39°45' W 074°07'0 0.0
2015-Jul-20 15:24N 39°45' W 074°07'0 0.0
2015-Jul-20 14:09N 39°45' W 074°07'0 0.0
2015-Jul-20 13:33N 39°45' W 074°07'0 0.0
2015-Jul-20 12:30N 39°45' W 074°07'0 0.0
2015-Jul-20 11:33N 39°45' W 074°07'0 0.0
2015-Jul-20 10:21N 39°45' W 074°07'0 0.0
2015-Jul-20 08:33N 39°45' W 074°07'0 0.0
2015-Jul-20 07:33N 39°45' W 074°07'0 0.0
2015-Jul-20 06:27N 39°45' W 074°07'0 0.0
2015-Jul-20 05:21N 39°45' W 074°07'0 0.0
2015-Jul-20 03:03N 39°45' W 074°07'0 0.0
2015-Jul-20 02:27N 39°45' W 074°07'0 0.0
2015-Jul-20 01:21N 39°45' W 074°07'0 0.0
2015-Jul-19 23:27N 39°45' W 074°07'0 0.0
2015-Jul-19 22:03N 39°45' W 074°07'0 0.0
2015-Jul-19 21:33N 39°45' W 074°07'0 0.0
2015-Jul-19 20:33N 39°45' W 074°07'0 0.0
2015-Jul-19 18:33N 39°45' W 074°07'0 0.0
2015-Jul-19 17:21N 39°45' W 074°07'0 0.0
2015-Jul-19 16:33N 39°45' W 074°07'0 0.0
2015-Jul-19 15:03N 39°45' W 074°07'0 0.0
2015-Jul-19 14:33N 39°45' W 074°07'0 0.0
2015-Jul-19 13:15N 39°45' W 074°07'0 0.0
2015-Jul-19 12:33N 39°45' W 074°07'0 0.0
2015-Jul-19 11:33N 39°45' W 074°07'0 0.0
2015-Jul-19 10:21N 39°45' W 074°07'0 0.0
2015-Jul-19 09:18N 39°45' W 074°07'0 0.0
2015-Jul-19 05:09N 39°45' W 074°07'0 0.0
2015-Jul-19 04:33N 39°45' W 074°07'0 0.0
2015-Jul-19 00:18N 39°45' W 074°07'0 0.0
2015-Jul-18 23:24N 39°45' W 074°07'0 0.0
2015-Jul-18 22:18N 39°45' W 074°07'0 0.0
2015-Jul-18 21:18N 39°45' W 074°07'0 0.0
2015-Jul-18 19:24N 39°45' W 074°07'  

Dump ship's entire track history